Time,TemperatureF,DewpointF,PressureIn,WindDirection,WindDirectionDegrees,WindSpeedMPH,WindSpeedGustMPH,Humidity,HourlyPrecipIn,Conditions,Clouds,dailyrainin,SoftwareType,DateUTC
2013-01-24 00:03:00,31.0,17.0,29.98,SSE,158,0.0,2.0,56,0.00,,,0.00,,2013-01-24 05:03:00,
2013-01-24 00:12:00,31.0,17.0,29.98,SSE,158,0.0,2.0,56,0.00,,,0.00,,2013-01-24 05:12:00,
2013-01-24 00:22:00,31.0,18.0,29.97,SSE,158,0.0,2.0,57,0.00,,,0.00,,2013-01-24 05:22:00,
2013-01-24 00:33:00,31.0,18.0,29.95,SSE,162,0.0,3.0,58,0.00,,,0.00,,2013-01-24 05:33:00,
2013-01-24 00:42:00,31.0,18.0,29.95,SSE,162,0.0,3.0,58,0.00,,,0.00,,2013-01-24 05:42:00,
2013-01-24 00:53:00,31.0,19.0,29.96,SSE,164,0.0,1.0,60,0.00,,,0.00,,2013-01-24 05:53:00,
2013-01-24 01:03:00,30.0,18.0,29.94,SSE,164,0.0,0.0,61,0.00,,,0.00,,2013-01-24 06:03:00,
2013-01-24 01:12:00,30.0,18.0,29.94,SSE,164,0.0,0.0,61,0.00,,,0.00,,2013-01-24 06:12:00,
2013-01-24 01:22:00,30.0,19.0,29.93,SSE,164,0.0,0.0,64,0.00,,,0.00,,2013-01-24 06:22:00,
2013-01-24 01:32:00,29.0,19.0,29.92,South,172,0.0,0.0,67,0.00,,,0.00,,2013-01-24 06:32:00,
2013-01-24 01:42:00,29.0,19.0,29.92,South,172,0.0,0.0,67,0.00,,,0.00,,2013-01-24 06:42:00,
2013-01-24 01:52:00,29.0,20.0,29.92,South,172,0.0,0.0,68,0.00,,,0.00,,2013-01-24 06:52:00,
2013-01-24 02:03:00,29.0,21.0,29.92,South,172,0.0,0.0,72,0.00,,,0.00,,2013-01-24 07:03:00,
2013-01-24 02:12:00,29.0,21.0,29.92,South,172,0.0,0.0,72,0.00,,,0.00,,2013-01-24 07:12:00,
2013-01-24 02:23:00,30.0,21.0,29.92,South,172,0.0,0.0,70,0.00,,,0.00,,2013-01-24 07:23:00,
2013-01-24 02:33:00,29.0,21.0,29.91,South,172,0.0,0.0,71,0.00,,,0.00,,2013-01-24 07:33:00,
2013-01-24 02:43:00,29.0,21.0,29.91,South,172,0.0,0.0,71,0.00,,,0.00,,2013-01-24 07:43:00,
2013-01-24 02:53:00,29.0,22.0,29.91,South,172,0.0,0.0,74,0.00,,,0.00,,2013-01-24 07:53:00,
2013-01-24 03:02:00,28.0,21.0,29.90,South,172,0.0,0.0,75,0.00,,,0.00,,2013-01-24 08:02:00,
2013-01-24 03:12:00,28.0,21.0,29.90,South,172,0.0,0.0,75,0.00,,,0.00,,2013-01-24 08:12:00,
2013-01-24 03:23:00,28.0,21.0,29.90,South,172,0.0,0.0,76,0.00,,,0.00,,2013-01-24 08:23:00,
2013-01-24 03:33:00,28.0,22.0,29.89,South,172,0.0,0.0,77,0.00,,,0.00,,2013-01-24 08:33:00,
2013-01-24 03:43:00,28.0,22.0,29.89,South,172,0.0,0.0,77,0.00,,,0.00,,2013-01-24 08:43:00,
2013-01-24 03:53:00,27.0,21.0,29.89,South,172,0.0,0.0,78,0.00,,,0.00,,2013-01-24 08:53:00,
2013-01-24 04:03:00,27.0,21.0,29.88,South,172,0.0,0.0,78,0.00,,,0.00,,2013-01-24 09:03:00,
2013-01-24 04:13:00,27.0,21.0,29.88,South,172,0.0,0.0,78,0.00,,,0.00,,2013-01-24 09:13:00,
2013-01-24 04:23:00,27.0,21.0,29.88,South,172,0.0,0.0,79,0.00,,,0.00,,2013-01-24 09:23:00,
2013-01-24 04:33:00,27.0,22.0,29.87,South,172,0.0,0.0,80,0.00,,,0.00,,2013-01-24 09:33:00,
2013-01-24 04:43:00,27.0,22.0,29.87,South,172,0.0,0.0,80,0.00,,,0.00,,2013-01-24 09:43:00,
2013-01-24 04:53:00,27.0,22.0,29.87,South,172,0.0,0.0,80,0.00,,,0.00,,2013-01-24 09:53:00,
2013-01-24 05:03:00,27.0,22.0,29.87,South,172,0.0,0.0,82,0.00,,,0.00,,2013-01-24 10:03:00,
2013-01-24 05:12:00,27.0,22.0,29.87,South,172,0.0,0.0,82,0.00,,,0.00,,2013-01-24 10:12:00,
2013-01-24 05:23:00,27.0,22.0,29.87,South,172,0.0,0.0,82,0.00,,,0.00,,2013-01-24 10:23:00,
2013-01-24 05:33:00,28.0,24.0,29.88,South,172,0.0,0.0,84,0.00,,,0.00,,2013-01-24 10:33:00,
2013-01-24 05:43:00,28.0,24.0,29.88,South,172,0.0,0.0,84,0.00,,,0.00,,2013-01-24 10:43:00,
2013-01-24 05:53:00,28.0,24.0,29.89,South,172,0.0,0.0,83,0.00,,,0.00,,2013-01-24 10:53:00,
2013-01-24 06:03:00,29.0,25.0,29.89,South,172,0.0,0.0,84,0.00,,,0.00,,2013-01-24 11:03:00,
2013-01-24 06:12:00,29.0,25.0,29.89,South,172,0.0,0.0,84,0.00,,,0.00,,2013-01-24 11:12:00,
2013-01-24 06:23:00,30.0,25.0,29.89,South,172,0.0,0.0,83,0.00,,,0.00,,2013-01-24 11:23:00,
2013-01-24 06:33:00,31.0,26.0,29.90,South,172,0.0,0.0,82,0.00,,,0.00,,2013-01-24 11:33:00,
2013-01-24 06:43:00,31.0,26.0,29.90,South,172,0.0,0.0,82,0.00,,,0.00,,2013-01-24 11:43:00,
2013-01-24 06:53:00,32.0,27.0,29.91,NW,309,0.0,1.0,81,0.00,,,0.00,,2013-01-24 11:53:00,
2013-01-24 07:03:00,34.0,27.0,29.94,North,360,0.0,4.0,75,0.00,,,0.00,,2013-01-24 12:03:00,
2013-01-24 07:12:00,34.0,27.0,29.94,North,360,0.0,4.0,75,0.00,,,0.00,,2013-01-24 12:12:00,
2013-01-24 07:23:00,34.0,26.0,29.96,NW,326,0.0,1.0,71,0.00,,,0.00,,2013-01-24 12:23:00,
2013-01-24 07:33:00,34.0,26.0,29.97,NNE,19,0.0,5.0,71,0.00,,,0.00,,2013-01-24 12:33:00,
2013-01-24 07:43:00,34.0,26.0,29.97,NNE,19,0.0,5.0,71,0.00,,,0.00,,2013-01-24 12:43:00,
2013-01-24 07:53:00,33.0,25.0,29.98,North,5,0.0,2.0,71,0.00,,,0.00,,2013-01-24 12:53:00,
2013-01-24 08:03:00,33.0,25.0,29.99,North,5,0.0,4.0,71,0.00,,,0.00,,2013-01-24 13:03:00,
2013-01-24 08:13:00,33.0,25.0,29.99,North,5,0.0,4.0,71,0.00,,,0.00,,2013-01-24 13:13:00,
2013-01-24 08:23:00,34.0,23.0,30.00,North,352,4.0,11.0,64,0.00,,,0.00,,2013-01-24 13:23:00,
2013-01-24 08:33:00,35.0,22.0,30.01,North,5,1.0,7.0,59,0.00,,,0.00,,2013-01-24 13:33:00,
2013-01-24 08:43:00,35.0,22.0,30.01,North,5,1.0,7.0,59,0.00,,,0.00,,2013-01-24 13:43:00,
2013-01-24 08:53:00,35.0,21.0,30.03,North,355,0.0,9.0,56,0.00,,,0.00,,2013-01-24 13:53:00,
2013-01-24 09:03:00,35.0,20.0,30.04,North,351,6.0,15.0,54,0.00,,,0.00,,2013-01-24 14:03:00,
2013-01-24 09:12:00,35.0,20.0,30.04,North,351,6.0,15.0,54,0.00,,,0.00,,2013-01-24 14:12:00,
2013-01-24 09:23:00,35.0,19.0,30.06,North,356,4.0,11.0,51,0.00,,,0.00,,2013-01-24 14:23:00,
2013-01-24 09:33:00,35.0,19.0,30.08,ENE,64,4.0,14.0,51,0.00,,,0.00,,2013-01-24 14:33:00,
2013-01-24 09:43:00,35.0,19.0,30.08,ENE,64,4.0,14.0,51,0.00,,,0.00,,2013-01-24 14:43:00,
2013-01-24 09:54:00,35.0,19.0,30.09,NE,47,4.0,12.0,51,0.00,,,0.00,,2013-01-24 14:54:00,
2013-01-24 10:04:00,36.0,19.0,30.10,NNW,342,3.0,14.0,50,0.00,,,0.00,,2013-01-24 15:04:00,
2013-01-24 10:13:00,36.0,19.0,30.10,NNW,342,3.0,14.0,50,0.00,,,0.00,,2013-01-24 15:13:00,
2013-01-24 10:23:00,37.0,18.0,30.12,West,263,3.0,14.0,46,0.00,,,0.00,,2013-01-24 15:23:00,
2013-01-24 10:33:00,37.0,18.0,30.12,West,263,3.0,14.0,46,0.00,,,0.00,,2013-01-24 15:33:00,
2013-01-24 10:43:00,37.0,17.0,30.12,NW,324,6.0,12.0,44,0.00,,,0.00,,2013-01-24 15:43:00,
2013-01-24 10:53:00,37.0,17.0,30.14,North,360,3.0,20.0,44,0.00,,,0.00,,2013-01-24 15:53:00,
2013-01-24 11:03:00,38.0,16.0,30.14,NE,38,4.0,12.0,41,0.00,,,0.00,,2013-01-24 16:03:00,
2013-01-24 11:12:00,38.0,16.0,30.14,NE,38,4.0,12.0,41,0.00,,,0.00,,2013-01-24 16:12:00,
2013-01-24 11:23:00,38.0,16.0,30.15,NNW,345,6.0,17.0,41,0.00,,,0.00,,2013-01-24 16:23:00,
2013-01-24 11:33:00,39.0,18.0,30.16,ENE,76,3.0,13.0,43,0.00,,,0.00,,2013-01-24 16:33:00,
2013-01-24 11:43:00,39.0,18.0,30.16,ENE,76,3.0,13.0,43,0.00,,,0.00,,2013-01-24 16:43:00,
2013-01-24 12:02:00,38.0,15.0,30.17,North,360,5.0,19.0,38,0.00,,,0.00,,2013-01-24 17:02:00,
2013-01-24 12:12:00,38.0,15.0,30.17,North,360,5.0,19.0,38,0.00,,,0.00,,2013-01-24 17:12:00,
2013-01-24 12:22:00,38.0,15.0,30.17,NNE,18,5.0,15.0,38,0.00,,,0.00,,2013-01-24 17:22:00,
2013-01-24 12:32:00,38.0,17.0,30.19,North,5,5.0,23.0,42,0.00,,,0.00,,2013-01-24 17:32:00,
2013-01-24 12:42:00,38.0,17.0,30.19,North,5,5.0,23.0,42,0.00,,,0.00,,2013-01-24 17:42:00,
2013-01-24 12:52:00,38.0,15.0,30.19,NNW,329,7.0,21.0,38,0.00,,,0.00,,2013-01-24 17:52:00,
2013-01-24 13:02:00,38.0,13.0,30.19,North,5,7.0,17.0,35,0.00,,,0.00,,2013-01-24 18:02:00,
2013-01-24 13:12:00,37.0,11.0,30.20,North,360,3.0,18.0,34,0.00,,,0.00,,2013-01-24 18:12:00,
2013-01-24 13:23:00,37.0,11.0,30.20,North,360,3.0,18.0,34,0.00,,,0.00,,2013-01-24 18:23:00,
2013-01-24 13:33:00,38.0,10.0,30.21,NNE,18,5.0,22.0,31,0.00,,,0.00,,2013-01-24 18:33:00,
2013-01-24 13:42:00,38.0,10.0,30.21,NNE,18,5.0,22.0,31,0.00,,,0.00,,2013-01-24 18:42:00,
2013-01-24 13:53:00,38.0,9.0,30.22,NE,37,2.0,12.0,29,0.00,,,0.00,,2013-01-24 18:53:00,
2013-01-24 14:02:00,37.0,8.0,30.22,NW,305,6.0,17.0,29,0.00,,,0.00,,2013-01-24 19:02:00,
2013-01-24 14:12:00,37.0,8.0,30.22,NW,305,6.0,17.0,29,0.00,,,0.00,,2013-01-24 19:12:00,
2013-01-24 14:22:00,37.0,7.0,30.23,NNW,337,7.0,24.0,28,0.00,,,0.00,,2013-01-24 19:22:00,
2013-01-24 14:33:00,37.0,4.0,30.23,NNE,27,7.0,15.0,25,0.00,,,0.00,,2013-01-24 19:33:00,
2013-01-24 14:42:00,37.0,4.0,30.24,NNW,341,7.0,18.0,24,0.00,,,0.00,,2013-01-24 19:42:00,
2013-01-24 14:53:00,37.0,4.0,30.24,NNW,341,7.0,18.0,24,0.00,,,0.00,,2013-01-24 19:53:00,
2013-01-24 15:02:00,37.0,4.0,30.25,NNW,329,7.0,18.0,24,0.00,,,0.00,,2013-01-24 20:02:00,
2013-01-24 15:11:00,37.0,4.0,30.25,NNW,329,7.0,18.0,24,0.00,,,0.00,,2013-01-24 20:11:00,
2013-01-24 15:22:00,36.0,2.0,30.26,NNW,333,4.0,10.0,23,0.00,,,0.00,,2013-01-24 20:22:00,
2013-01-24 15:32:00,35.0,2.0,30.27,NW,304,3.0,17.0,24,0.00,,,0.00,,2013-01-24 20:32:00,
2013-01-24 15:42:00,35.0,2.0,30.27,NW,304,3.0,17.0,24,0.00,,,0.00,,2013-01-24 20:42:00,
2013-01-24 15:52:00,35.0,2.0,30.27,North,353,3.0,12.0,24,0.00,,,0.00,,2013-01-24 20:52:00,
2013-01-24 16:02:00,36.0,4.0,30.29,ENE,65,4.0,11.0,26,0.00,,,0.00,,2013-01-24 21:02:00,
2013-01-24 16:12:00,36.0,4.0,30.29,ENE,65,4.0,11.0,26,0.00,,,0.00,,2013-01-24 21:12:00,
2013-01-24 16:22:00,35.0,4.0,30.29,NNW,328,5.0,12.0,27,0.00,,,0.00,,2013-01-24 21:22:00,
2013-01-24 16:33:00,34.0,4.0,30.31,North,349,3.0,9.0,27,0.00,,,0.00,,2013-01-24 21:33:00,
2013-01-24 16:43:00,34.0,4.0,30.31,North,349,3.0,9.0,27,0.00,,,0.00,,2013-01-24 21:43:00,
2013-01-24 16:53:00,34.0,4.0,30.31,North,350,1.0,11.0,28,0.00,,,0.00,,2013-01-24 21:53:00,
2013-01-24 17:03:00,34.0,9.0,30.32,NNW,345,1.0,6.0,35,0.00,,,0.00,,2013-01-24 22:03:00,
2013-01-24 17:12:00,34.0,9.0,30.32,NNW,345,1.0,6.0,35,0.00,,,0.00,,2013-01-24 22:12:00,
2013-01-24 17:22:00,33.0,9.0,30.32,NNW,348,0.0,7.0,36,0.00,,,0.00,,2013-01-24 22:22:00,
2013-01-24 17:32:00,32.0,9.0,30.34,ENE,69,1.0,5.0,38,0.00,,,0.00,,2013-01-24 22:32:00,
2013-01-24 17:42:00,32.0,9.0,30.34,ENE,69,1.0,5.0,38,0.00,,,0.00,,2013-01-24 22:42:00,
2013-01-24 17:53:00,31.0,9.0,30.35,North,10,0.0,6.0,39,0.00,,,0.00,,2013-01-24 22:53:00,
2013-01-24 18:03:00,31.0,8.0,30.34,NNE,24,0.0,5.0,38,0.00,,,0.00,,2013-01-24 23:03:00,
2013-01-24 18:12:00,31.0,8.0,30.34,NNE,24,0.0,5.0,38,0.00,,,0.00,,2013-01-24 23:12:00,
2013-01-24 18:22:00,31.0,9.0,30.34,NE,44,0.0,1.0,39,0.00,,,0.00,,2013-01-24 23:22:00,
2013-01-24 18:32:00,30.0,9.0,30.36,North,10,0.0,3.0,41,0.00,,,0.00,,2013-01-24 23:32:00,
2013-01-24 18:42:00,30.0,9.0,30.36,North,10,0.0,3.0,41,0.00,,,0.00,,2013-01-24 23:42:00,
2013-01-24 18:52:00,30.0,10.0,30.37,NE,39,0.0,0.0,42,0.00,,,0.00,,2013-01-24 23:52:00,
2013-01-24 19:02:00,29.0,9.0,30.37,ENE,64,0.0,4.0,43,0.00,,,0.00,,2013-01-25 00:02:00,
2013-01-24 19:12:00,29.0,9.0,30.37,ENE,64,0.0,4.0,43,0.00,,,0.00,,2013-01-25 00:12:00,
2013-01-24 19:22:00,29.0,9.0,30.38,ENE,65,0.0,0.0,43,0.00,,,0.00,,2013-01-25 00:22:00,
2013-01-24 19:32:00,29.0,10.0,30.39,East,80,0.0,1.0,44,0.00,,,0.00,,2013-01-25 00:32:00,
2013-01-24 19:42:00,29.0,10.0,30.39,East,80,0.0,1.0,44,0.00,,,0.00,,2013-01-25 00:42:00,
2013-01-24 19:53:00,28.0,10.0,30.39,NE,53,0.0,1.0,46,0.00,,,0.00,,2013-01-25 00:53:00,
2013-01-24 20:02:00,28.0,10.0,30.40,NE,54,0.0,0.0,46,0.00,,,0.00,,2013-01-25 01:02:00,
2013-01-24 20:12:00,28.0,10.0,30.40,NE,54,0.0,0.0,46,0.00,,,0.00,,2013-01-25 01:12:00,
2013-01-24 20:22:00,28.0,9.0,30.40,East,81,0.0,3.0,44,0.00,,,0.00,,2013-01-25 01:22:00,
2013-01-24 20:32:00,28.0,9.0,30.39,ENE,64,1.0,5.0,44,0.00,,,0.00,,2013-01-25 01:32:00,
2013-01-24 20:42:00,28.0,9.0,30.39,ENE,64,1.0,5.0,44,0.00,,,0.00,,2013-01-25 01:42:00,
2013-01-24 20:52:00,28.0,10.0,30.40,NE,35,0.0,2.0,46,0.00,,,0.00,,2013-01-25 01:52:00,
2013-01-24 21:02:00,27.0,9.0,30.40,NNW,342,0.0,3.0,46,0.00,,,0.00,,2013-01-25 02:02:00,
2013-01-24 21:12:00,27.0,9.0,30.40,NNW,342,0.0,3.0,46,0.00,,,0.00,,2013-01-25 02:12:00,
2013-01-24 21:22:00,27.0,8.0,30.40,NNE,20,1.0,4.0,44,0.00,,,0.00,,2013-01-25 02:22:00,
2013-01-24 21:32:00,27.0,9.0,30.41,NE,43,0.0,3.0,45,0.00,,,0.00,,2013-01-25 02:32:00,
2013-01-24 21:42:00,26.0,9.0,30.41,NE,51,0.0,4.0,47,0.00,,,0.00,,2013-01-25 02:42:00,
2013-01-24 21:53:00,26.0,9.0,30.41,NE,51,0.0,4.0,47,0.00,,,0.00,,2013-01-25 02:53:00,
2013-01-24 22:02:00,26.0,8.0,30.40,ENE,60,0.0,3.0,45,0.00,,,0.00,,2013-01-25 03:02:00,
2013-01-24 22:12:00,26.0,7.0,30.40,NE,53,1.0,4.0,44,0.00,,,0.00,,2013-01-25 03:12:00,
2013-01-24 22:22:00,26.0,7.0,30.40,NE,53,1.0,4.0,44,0.00,,,0.00,,2013-01-25 03:22:00,
2013-01-24 22:33:00,26.0,9.0,30.40,NE,46,0.0,4.0,47,0.00,,,0.00,,2013-01-25 03:33:00,
2013-01-24 22:42:00,26.0,9.0,30.40,NE,46,0.0,4.0,47,0.00,,,0.00,,2013-01-25 03:42:00,
2013-01-24 22:53:00,25.0,8.0,30.40,ENE,74,0.0,3.0,47,0.00,,,0.00,,2013-01-25 03:53:00,
2013-01-24 23:02:00,25.0,7.0,30.41,ENE,60,0.0,2.0,45,0.00,,,0.00,,2013-01-25 04:02:00,
2013-01-24 23:12:00,25.0,6.0,30.40,ENE,70,1.0,4.0,44,0.00,,,0.00,,2013-01-25 04:12:00,
2013-01-24 23:22:00,25.0,6.0,30.40,ENE,70,1.0,4.0,44,0.00,,,0.00,,2013-01-25 04:22:00,
2013-01-24 23:32:00,25.0,6.0,30.40,ENE,58,1.0,5.0,43,0.00,,,0.00,,2013-01-25 04:32:00,
2013-01-24 23:42:00,25.0,6.0,30.40,ENE,58,1.0,5.0,43,0.00,,,0.00,,2013-01-25 04:42:00,
2013-01-24 23:52:00,25.0,5.0,30.40,ENE,73,2.0,9.0,41,0.00,,,0.00,,2013-01-25 04:52:00,